Time;durP1;ratioP1;P1;durP2;ratioP2;P2;SDS_P1;SDS_P2;PMS_P1;PMS_P2;Temp;Humidity;BMP_temperature;BMP_pressure;BME280_temperature;BME280_humidity;BME280_pressure;Samples;Min_cycle;Max_cycle;Signal;HPM_P1;HPM_P2
2022/04/05 00:00:09;;;;;;;8.47;7.57;;;;;;;;;;4956199;28;20276;-76
2022/04/05 00:02:35;;;;;;;8.30;7.50;;;;;;;;;;4956373;28;20446;-77
2022/04/05 00:05:01;;;;;;;7.38;6.68;;;;;;;;;;4956129;28;20185;-76
2022/04/05 00:07:27;;;;;;;6.60;6.00;;;;;;;;;;4956311;28;20181;-77
2022/04/05 00:09:53;;;;;;;6.30;5.80;;;;;;;;;;4956271;28;20173;-77
2022/04/05 00:12:22;;;;;;;8.03;7.23;;;;;;;;;;4955586;28;20454;-78
2022/04/05 00:14:48;;;;;;;6.85;6.13;;;;;;;;;;4956161;28;20421;-78
2022/04/05 00:17:14;;;;;;;6.78;6.07;;;;;;;;;;4955995;28;20185;-78
2022/04/05 00:19:40;;;;;;;8.68;6.35;;;;;;;;;;4956042;28;20232;-76
2022/04/05 00:22:06;;;;;;;8.83;7.17;;;;;;;;;;4955715;28;20662;-77
2022/04/05 00:24:32;;;;;;;8.37;7.50;;;;;;;;;;4955717;28;20510;-76
2022/04/05 00:26:59;;;;;;;8.02;7.30;;;;;;;;;;4955899;28;20547;-76
2022/04/05 00:29:25;;;;;;;8.18;7.15;;;;;;;;;;4955935;28;20178;-78
2022/04/05 00:31:51;;;;;;;8.60;7.80;;;;;;;;;;4955559;28;20639;-76
2022/04/05 00:34:18;;;;;;;9.75;8.85;;;;;;;;;;4955629;28;20256;-76
2022/04/05 00:36:44;;;;;;;9.65;8.73;;;;;;;;;;4955622;28;20173;-75
2022/04/05 00:39:10;;;;;;;8.93;8.02;;;;;;;;;;4955694;28;20561;-76
2022/04/05 00:41:36;;;;;;;10.10;9.10;;;;;;;;;;4955275;28;20201;-77
2022/04/05 00:44:02;;;;;;;10.15;9.10;;;;;;;;;;4955554;28;20737;-78
2022/04/05 00:46:28;;;;;;;12.00;10.80;;;;;;;;;;4955433;28;20208;-76
2022/04/05 00:48:56;;;;;;;10.90;9.80;;;;;;;;;;4955549;28;20657;-75
2022/04/05 00:51:23;;;;;;;11.50;10.40;;;;;;;;;;4954807;28;20482;-76
2022/04/05 00:53:51;;;;;;;10.90;9.80;;;;;;;;;;4955773;28;20559;-78
2022/04/05 00:56:18;;;;;;;10.10;9.15;;;;;;;;;;4955734;28;20186;-78
2022/04/05 00:58:46;;;;;;;11.32;10.30;;;;;;;;;;4955687;28;20192;-77
2022/04/05 01:01:16;;;;;;;10.25;8.15;;;;;;;;;;4954926;28;20276;-76
2022/04/05 01:03:47;;;;;;;10.50;9.02;;;;;;;;;;4955560;28;20540;-75
2022/04/05 01:06:13;;;;;;;12.55;11.15;;;;;;;;;;4955357;28;20206;-76
2022/04/05 01:08:40;;;;;;;11.70;10.60;;;;;;;;;;4955122;28;20176;-76
2022/04/05 01:11:06;;;;;;;13.00;9.80;;;;;;;;;;4954347;28;20204;-74
2022/04/05 01:13:32;;;;;;;10.93;9.82;;;;;;;;;;4955193;28;20201;-76
2022/04/05 01:15:58;;;;;;;12.10;10.10;;;;;;;;;;4955064;28;20203;-76
2022/04/05 01:18:25;;;;;;;10.43;9.20;;;;;;;;;;4955298;28;20516;-76
2022/04/05 01:20:51;;;;;;;10.80;9.68;;;;;;;;;;4954579;28;20444;-76
2022/04/05 01:23:21;;;;;;;11.25;9.63;;;;;;;;;;4955121;28;20272;-76
2022/04/05 01:25:47;;;;;;;10.73;9.63;;;;;;;;;;4955249;28;20229;-76
2022/04/05 01:28:14;;;;;;;9.60;8.60;;;;;;;;;;4955076;28;20642;-77
2022/04/05 01:30:40;;;;;;;11.30;9.75;;;;;;;;;;4954352;28;20404;-78
2022/04/05 01:33:07;;;;;;;11.13;9.93;;;;;;;;;;4954954;28;20169;-75
2022/04/05 01:35:34;;;;;;;11.05;8.27;;;;;;;;;;4954878;28;20902;-76
2022/04/05 01:38:01;;;;;;;9.73;8.70;;;;;;;;;;4954952;28;20177;-76
2022/04/05 01:40:27;;;;;;;12.05;10.80;;;;;;;;;;4954374;28;20185;-77
2022/04/05 01:42:53;;;;;;;12.80;11.43;;;;;;;;;;4954684;28;20212;-78
2022/04/05 01:45:19;;;;;;;10.85;9.75;;;;;;;;;;4954723;28;20464;-77
2022/04/05 01:47:45;;;;;;;12.18;10.98;;;;;;;;;;4954982;28;20187;-76
2022/04/05 01:50:11;;;;;;;12.20;11.00;;;;;;;;;;4954632;28;20241;-75
2022/04/05 01:52:37;;;;;;;14.27;10.88;;;;;;;;;;4954708;28;20488;-76
2022/04/05 01:55:04;;;;;;;13.75;12.07;;;;;;;;;;4955022;28;20208;-77
2022/04/05 01:57:30;;;;;;;15.20;10.70;;;;;;;;;;4954766;28;20598;-77
2022/04/05 01:59:56;;;;;;;12.97;10.23;;;;;;;;;;4954848;28;20177;-76
2022/04/05 02:02:22;;;;;;;12.63;11.20;;;;;;;;;;4954564;28;20441;-77
2022/04/05 02:04:48;;;;;;;12.53;11.23;;;;;;;;;;4954968;28;20437;-76
2022/04/05 02:07:16;;;;;;;11.23;10.02;;;;;;;;;;4954569;28;20567;-77
2022/04/05 02:09:42;;;;;;;12.80;11.48;;;;;;;;;;4954585;28;20184;-76
2022/04/05 02:12:09;;;;;;;12.75;10.75;;;;;;;;;;4954207;28;20204;-76
2022/04/05 02:14:36;;;;;;;10.77;9.63;;;;;;;;;;4954658;28;20169;-76
2022/04/05 02:17:03;;;;;;;13.02;11.40;;;;;;;;;;4954712;28;20178;-76
2022/04/05 02:19:29;;;;;;;13.45;11.70;;;;;;;;;;4954593;28;20181;-76
2022/04/05 02:21:55;;;;;;;12.55;11.25;;;;;;;;;;4954384;28;20577;-76
2022/04/05 02:24:22;;;;;;;11.85;9.77;;;;;;;;;;4957221;28;20182;-77
2022/04/05 02:26:48;;;;;;;13.38;11.35;;;;;;;;;;4958081;28;20196;-75
2022/04/05 02:29:14;;;;;;;12.43;11.07;;;;;;;;;;4958024;28;20169;-76
2022/04/05 02:31:41;;;;;;;16.55;13.30;;;;;;;;;;4957613;28;20205;-76
2022/04/05 02:34:07;;;;;;;15.13;11.63;;;;;;;;;;4957930;28;20201;-75
2022/04/05 02:36:33;;;;;;;14.07;11.03;;;;;;;;;;4956664;29;20213;-76
2022/04/05 02:39:00;;;;;;;12.70;10.77;;;;;;;;;;4957919;28;20412;-76
2022/04/05 02:41:26;;;;;;;16.45;14.32;;;;;;;;;;4957316;28;20475;-75
2022/04/05 02:43:52;;;;;;;15.73;12.57;;;;;;;;;;4957863;28;20180;-76
2022/04/05 02:46:18;;;;;;;16.67;12.80;;;;;;;;;;4957396;28;20224;-76
2022/04/05 02:48:46;;;;;;;13.52;12.18;;;;;;;;;;4957590;28;20944;-77
2022/04/05 02:51:12;;;;;;;11.38;8.55;;;;;;;;;;4957112;28;20216;-76
2022/04/05 02:53:38;;;;;;;14.02;12.52;;;;;;;;;;4957434;28;20174;-76
2022/04/05 02:56:05;;;;;;;13.57;11.32;;;;;;;;;;4957500;28;20204;-76
2022/04/05 02:58:30;;;;;;;14.45;12.82;;;;;;;;;;4957617;28;20268;-76
2022/04/05 03:00:56;;;;;;;14.23;12.63;;;;;;;;;;4957111;28;20732;-76
2022/04/05 03:03:22;;;;;;;16.70;13.13;;;;;;;;;;4957289;28;20435;-76
2022/04/05 03:05:48;;;;;;;15.63;13.80;;;;;;;;;;4957158;28;20480;-75
2022/04/05 03:08:14;;;;;;;14.73;11.70;;;;;;;;;;4957415;28;20416;-77
2022/04/05 03:10:40;;;;;;;14.47;12.77;;;;;;;;;;4957346;28;20417;-76
2022/04/05 03:13:07;;;;;;;14.93;11.80;;;;;;;;;;4957431;28;20733;-77
2022/04/05 03:15:33;;;;;;;16.30;14.40;;;;;;;;;;4957347;28;20421;-76
2022/04/05 03:17:59;;;;;;;14.77;12.20;;;;;;;;;;4957237;28;20708;-75
2022/04/05 03:20:25;;;;;;;13.30;10.53;;;;;;;;;;4956843;28;20413;-75
2022/04/05 03:22:52;;;;;;;14.10;12.55;;;;;;;;;;4957066;28;20432;-75
2022/04/05 03:25:18;;;;;;;15.65;12.63;;;;;;;;;;4957001;28;20174;-77
2022/04/05 03:27:44;;;;;;;14.52;11.52;;;;;;;;;;4956817;28;20272;-77
2022/04/05 03:30:11;;;;;;;18.60;13.60;;;;;;;;;;4956679;28;20185;-76
2022/04/05 03:32:37;;;;;;;16.35;13.40;;;;;;;;;;4956868;28;20569;-77
2022/04/05 03:35:04;;;;;;;19.00;14.23;;;;;;;;;;4956568;28;20174;-76
2022/04/05 03:37:30;;;;;;;17.42;14.20;;;;;;;;;;4956753;28;20450;-76
2022/04/05 03:39:56;;;;;;;19.70;16.45;;;;;;;;;;4956655;28;20181;-76
2022/04/05 03:42:22;;;;;;;18.17;14.83;;;;;;;;;;4956383;28;20201;-75
2022/04/05 03:44:48;;;;;;;22.10;15.65;;;;;;;;;;4956790;28;20762;-77
2022/04/05 03:47:14;;;;;;;18.80;15.23;;;;;;;;;;4956589;28;20207;-76
2022/04/05 03:49:41;;;;;;;20.00;14.40;;;;;;;;;;4956583;28;20177;-77
2022/04/05 03:52:07;;;;;;;20.30;16.27;;;;;;;;;;4955896;28;20351;-76
2022/04/05 03:54:33;;;;;;;20.27;16.00;;;;;;;;;;4956498;28;20619;-76
2022/04/05 03:56:59;;;;;;;21.97;16.93;;;;;;;;;;4955228;29;20268;-77
2022/04/05 03:59:25;;;;;;;20.47;16.33;;;;;;;;;;4956740;28;20781;-77
2022/04/05 04:01:51;;;;;;;23.25;15.77;;;;;;;;;;4956039;28;20504;-77
2022/04/05 04:04:17;;;;;;;26.83;16.30;;;;;;;;;;4956489;28;20615;-77
2022/04/05 04:06:44;;;;;;;25.43;18.50;;;;;;;;;;4956415;28;20471;-76
2022/04/05 04:09:11;;;;;;;21.65;16.88;;;;;;;;;;4956194;28;20464;-77
2022/04/05 04:11:40;;;;;;;23.08;16.90;;;;;;;;;;4955801;28;20199;-76
2022/04/05 04:14:06;;;;;;;22.25;16.48;;;;;;;;;;4956103;28;20249;-75
2022/04/05 04:16:32;;;;;;;22.67;17.08;;;;;;;;;;4956289;28;20547;-77
2022/04/05 04:18:58;;;;;;;22.70;17.38;;;;;;;;;;4956166;28;20196;-77
2022/04/05 04:21:24;;;;;;;21.67;17.30;;;;;;;;;;4955606;28;20244;-76
2022/04/05 04:23:50;;;;;;;27.30;18.48;;;;;;;;;;4956085;28;20184;-76
2022/04/05 04:26:16;;;;;;;25.13;16.80;;;;;;;;;;4955921;28;20611;-78
2022/04/05 04:28:42;;;;;;;24.17;18.00;;;;;;;;;;4955835;28;20417;-74
2022/04/05 04:31:08;;;;;;;28.13;19.65;;;;;;;;;;4955410;28;20428;-76
2022/04/05 04:33:34;;;;;;;26.50;18.30;;;;;;;;;;4955730;28;20181;-76
2022/04/05 04:36:00;;;;;;;25.37;18.43;;;;;;;;;;4955770;28;20508;-78
2022/04/05 04:38:26;;;;;;;24.02;18.42;;;;;;;;;;4955543;28;20416;-75
2022/04/05 04:40:52;;;;;;;29.55;20.00;;;;;;;;;;4955412;28;20231;-75
2022/04/05 04:43:19;;;;;;;30.80;20.73;;;;;;;;;;4955604;28;20178;-78
2022/04/05 04:45:45;;;;;;;25.85;19.65;;;;;;;;;;4954764;28;20205;-77
2022/04/05 04:48:11;;;;;;;29.10;20.73;;;;;;;;;;4955486;28;20571;-76
2022/04/05 04:50:37;;;;;;;28.17;18.67;;;;;;;;;;4954931;28;20185;-78
2022/04/05 04:53:03;;;;;;;28.37;20.90;;;;;;;;;;4955537;28;20672;-78
2022/04/05 04:55:29;;;;;;;30.33;19.65;;;;;;;;;;4955440;28;20472;-77
2022/04/05 04:57:56;;;;;;;30.48;22.25;;;;;;;;;;4954190;28;20221;-77
2022/04/05 05:00:22;;;;;;;29.50;20.83;;;;;;;;;;4954978;28;20216;-78
2022/04/05 05:02:48;;;;;;;33.05;22.00;;;;;;;;;;4955323;28;20236;-76
2022/04/05 05:05:18;;;;;;;28.83;19.92;;;;;;;;;;4955240;28;20670;-76
2022/04/05 05:07:44;;;;;;;29.48;20.65;;;;;;;;;;4970105;28;20223;-77
2022/04/05 05:10:11;;;;;;;26.88;19.70;;;;;;;;;;4955025;28;20182;-79
2022/04/05 05:12:40;;;;;;;28.80;21.55;;;;;;;;;;4954875;28;20201;-77
2022/04/05 05:15:06;;;;;;;28.67;19.92;;;;;;;;;;4955236;28;20174;-77
2022/04/05 05:17:32;;;;;;;29.23;19.17;;;;;;;;;;4955052;28;20182;-76
2022/04/05 05:19:58;;;;;;;30.43;20.30;;;;;;;;;;4955404;28;20215;-77
2022/04/05 05:22:24;;;;;;;32.40;19.63;;;;;;;;;;4953550;28;20511;-76
2022/04/05 05:24:50;;;;;;;27.02;21.05;;;;;;;;;;4969676;28;20886;-78
2022/04/05 05:27:16;;;;;;;27.67;20.00;;;;;;;;;;4954996;28;20209;-77
2022/04/05 05:29:42;;;;;;;28.13;19.63;;;;;;;;;;4955156;28;20973;-78
2022/04/05 05:32:08;;;;;;;26.73;19.10;;;;;;;;;;4954513;28;20516;-78
2022/04/05 05:34:34;;;;;;;29.48;21.10;;;;;;;;;;4954992;28;20909;-76
2022/04/05 05:37:00;;;;;;;29.35;20.70;;;;;;;;;;4954845;28;20188;-77
2022/04/05 05:39:28;;;;;;;26.73;20.83;;;;;;;;;;4955004;28;20194;-76
2022/04/05 05:41:54;;;;;;;32.63;21.23;;;;;;;;;;4954594;28;20475;-77
2022/04/05 05:44:20;;;;;;;30.35;19.25;;;;;;;;;;4954931;28;20668;-76
2022/04/05 05:46:46;;;;;;;32.42;22.05;;;;;;;;;;4954561;28;20300;-75
2022/04/05 05:49:12;;;;;;;29.25;20.58;;;;;;;;;;4954621;28;20591;-76
2022/04/05 05:51:38;;;;;;;30.13;20.50;;;;;;;;;;4953184;29;20220;-77
2022/04/05 05:54:05;;;;;;;31.53;20.50;;;;;;;;;;4954827;28;20428;-77
2022/04/05 05:56:31;;;;;;;31.20;20.15;;;;;;;;;;4954953;28;20448;-77
2022/04/05 05:58:57;;;;;;;27.33;20.27;;;;;;;;;;4958402;28;20208;-76
2022/04/05 06:01:23;;;;;;;28.60;21.03;;;;;;;;;;4958164;28;20933;-77
2022/04/05 06:03:50;;;;;;;25.20;19.60;;;;;;;;;;4958453;28;20417;-75
2022/04/05 06:06:17;;;;;;;27.45;20.13;;;;;;;;;;4958772;28;20224;-77
2022/04/05 06:08:42;;;;;;;29.42;20.15;;;;;;;;;;4958699;28;20173;-76
2022/04/05 06:11:10;;;;;;;34.07;21.80;;;;;;;;;;4958104;28;20209;-78
2022/04/05 06:13:36;;;;;;;37.40;21.52;;;;;;;;;;4958478;28;20413;-75
2022/04/05 06:16:03;;;;;;;29.85;20.13;;;;;;;;;;4958339;28;20574;-77
2022/04/05 06:18:29;;;;;;;26.02;18.70;;;;;;;;;;4958309;28;20528;-76
2022/04/05 06:20:55;;;;;;;26.80;20.23;;;;;;;;;;4957716;28;20279;-76
2022/04/05 06:23:21;;;;;;;31.00;19.40;;;;;;;;;;4957720;28;20808;-77
2022/04/05 06:25:47;;;;;;;28.33;19.95;;;;;;;;;;4958153;28;20821;-77
2022/04/05 06:28:15;;;;;;;29.67;19.73;;;;;;;;;;4958155;28;20211;-79
2022/04/05 06:30:41;;;;;;;27.92;20.20;;;;;;;;;;4957744;28;20173;-75
2022/04/05 06:33:09;;;;;;;30.15;20.40;;;;;;;;;;4957907;28;20173;-77
2022/04/05 06:35:36;;;;;;;35.03;20.90;;;;;;;;;;4957641;28;20185;-77
2022/04/05 06:38:02;;;;;;;21.40;15.30;;;;;;;;;;4958021;28;20532;-77
2022/04/05 06:40:28;;;;;;;27.00;19.07;;;;;;;;;;4957558;28;20187;-79
2022/04/05 06:42:54;;;;;;;26.67;19.45;;;;;;;;;;4957735;28;20447;-75
2022/04/05 06:45:22;;;;;;;30.77;19.38;;;;;;;;;;4957520;28;20623;-77
2022/04/05 06:47:48;;;;;;;22.92;15.43;;;;;;;;;;4957394;28;20174;-78
2022/04/05 06:50:17;;;;;;;27.83;19.20;;;;;;;;;;4956926;28;20245;-76
2022/04/05 06:52:43;;;;;;;25.40;17.73;;;;;;;;;;4957247;28;20201;-77
2022/04/05 06:55:10;;;;;;;27.13;18.73;;;;;;;;;;4957028;28;20549;-78
2022/04/05 06:57:36;;;;;;;27.85;17.70;;;;;;;;;;4957096;28;20180;-77
2022/04/05 07:00:04;;;;;;;24.35;16.70;;;;;;;;;;4957647;28;20182;-77
2022/04/05 07:02:30;;;;;;;20.13;15.57;;;;;;;;;;4957330;28;20202;-76
2022/04/05 07:04:56;;;;;;;24.23;17.50;;;;;;;;;;4957647;28;20582;-76
2022/04/05 07:07:22;;;;;;;26.43;17.53;;;;;;;;;;4957385;28;20464;-76
2022/04/05 07:09:48;;;;;;;20.80;16.10;;;;;;;;;;4956616;28;20473;-75
2022/04/05 07:12:14;;;;;;;21.90;16.30;;;;;;;;;;4956958;28;20948;-76
2022/04/05 07:14:40;;;;;;;24.53;16.27;;;;;;;;;;4957325;28;20413;-79
2022/04/05 07:17:06;;;;;;;27.10;17.43;;;;;;;;;;4957359;28;20961;-78
2022/04/05 07:19:33;;;;;;;22.70;14.80;;;;;;;;;;4957428;28;20504;-77
2022/04/05 07:21:59;;;;;;;22.60;17.20;;;;;;;;;;4956626;28;20216;-76
2022/04/05 07:24:26;;;;;;;30.77;17.20;;;;;;;;;;4957308;28;20599;-77
2022/04/05 07:26:52;;;;;;;21.90;15.25;;;;;;;;;;4957056;28;20816;-76
2022/04/05 07:29:18;;;;;;;23.10;14.85;;;;;;;;;;4957179;28;20248;-76
2022/04/05 07:31:44;;;;;;;21.17;14.18;;;;;;;;;;4956439;28;20630;-76
2022/04/05 07:34:10;;;;;;;21.55;15.20;;;;;;;;;;4957177;28;20182;-78
2022/04/05 07:36:36;;;;;;;21.95;14.35;;;;;;;;;;4956983;28;20669;-78
2022/04/05 07:39:03;;;;;;;18.35;13.77;;;;;;;;;;4957027;28;20580;-76
2022/04/05 07:41:29;;;;;;;23.70;15.55;;;;;;;;;;4956341;28;20208;-78
2022/04/05 07:43:55;;;;;;;20.75;14.05;;;;;;;;;;4956619;28;20196;-77
2022/04/05 07:46:21;;;;;;;22.00;14.40;;;;;;;;;;4971363;28;20224;-76
2022/04/05 07:48:47;;;;;;;20.17;14.02;;;;;;;;;;4956636;28;20794;-77
2022/04/05 07:51:14;;;;;;;18.10;13.95;;;;;;;;;;4956099;28;20658;-76
2022/04/05 07:53:40;;;;;;;14.38;12.23;;;;;;;;;;4971317;28;20521;-76
2022/04/05 07:56:06;;;;;;;16.63;12.23;;;;;;;;;;4956369;28;20638;-76
2022/04/05 07:58:33;;;;;;;16.17;12.25;;;;;;;;;;4956187;28;20200;-76
2022/04/05 08:00:59;;;;;;;16.00;10.90;;;;;;;;;;4955858;28;20209;-77
2022/04/05 08:03:27;;;;;;;12.52;9.38;;;;;;;;;;4956380;28;20170;-75
2022/04/05 08:05:53;;;;;;;16.48;11.63;;;;;;;;;;4956070;28;20579;-76
2022/04/05 08:08:19;;;;;;;14.07;10.80;;;;;;;;;;4956319;28;20174;-77
2022/04/05 08:10:45;;;;;;;14.60;9.73;;;;;;;;;;4955908;28;20181;-76
2022/04/05 08:13:11;;;;;;;12.48;10.23;;;;;;;;;;4956452;28;20397;-76
2022/04/05 08:15:41;;;;;;;15.50;10.90;;;;;;;;;;4956435;28;20192;-76
2022/04/05 08:18:07;;;;;;;15.70;11.85;;;;;;;;;;4956077;28;20181;-76
2022/04/05 08:20:34;;;;;;;19.65;13.43;;;;;;;;;;4955868;28;20198;-76
2022/04/05 08:23:00;;;;;;;17.92;13.40;;;;;;;;;;4956170;28;20261;-75
2022/04/05 08:25:27;;;;;;;19.45;14.90;;;;;;;;;;4955961;28;20185;-76
2022/04/05 08:27:53;;;;;;;22.75;14.75;;;;;;;;;;4955466;28;20174;-75
2022/04/05 08:30:20;;;;;;;23.03;16.00;;;;;;;;;;4954950;28;20178;-75
2022/04/05 08:32:46;;;;;;;22.98;16.70;;;;;;;;;;4955765;28;20871;-75
2022/04/05 08:35:13;;;;;;;23.33;16.67;;;;;;;;;;4955837;28;20240;-75
2022/04/05 08:37:40;;;;;;;29.33;20.50;;;;;;;;;;4955717;28;20189;-75
2022/04/05 08:40:07;;;;;;;24.45;17.98;;;;;;;;;;4955602;28;20174;-75
2022/04/05 08:42:43;;;;;;;24.02;19.35;;;;;;;;;;4955508;28;20563;-76
2022/04/05 08:45:10;;;;;;;23.55;17.17;;;;;;;;;;4955619;28;20184;-75
2022/04/05 08:47:39;;;;;;;24.77;16.95;;;;;;;;;;4955623;28;20231;-76
2022/04/05 08:50:05;;;;;;;23.45;18.75;;;;;;;;;;4955467;28;20180;-76
2022/04/05 08:52:31;;;;;;;22.95;18.50;;;;;;;;;;4954958;28;20213;-75
2022/04/05 08:54:57;;;;;;;23.45;17.25;;;;;;;;;;4955472;28;20197;-76
2022/04/05 08:57:23;;;;;;;25.35;18.33;;;;;;;;;;4955417;28;20175;-74
2022/04/05 08:59:49;;;;;;;23.88;17.08;;;;;;;;;;4955425;28;20187;-75
2022/04/05 09:02:24;;;;;;;26.92;19.50;;;;;;;;;;4954872;28;20238;-76
2022/04/05 09:04:50;;;;;;;24.92;19.88;;;;;;;;;;4955524;28;20523;-76
2022/04/05 09:07:20;;;;;;;22.10;19.20;;;;;;;;;;4955261;28;20201;-75
2022/04/05 09:09:46;;;;;;;24.05;19.17;;;;;;;;;;4955471;28;20601;-75
2022/04/05 09:12:18;;;;;;;23.98;18.15;;;;;;;;;;4955063;28;20287;-75
2022/04/05 09:14:44;;;;;;;19.77;16.33;;;;;;;;;;4955358;28;20616;-75
2022/04/05 09:17:14;;;;;;;22.27;19.88;;;;;;;;;;4955313;28;20200;-76
2022/04/05 09:19:42;;;;;;;23.70;17.38;;;;;;;;;;4955283;28;20178;-75
2022/04/05 09:22:08;;;;;;;28.58;18.42;;;;;;;;;;4954829;28;20718;-74
2022/04/05 09:24:34;;;;;;;23.40;17.63;;;;;;;;;;4955063;28;20187;-75
2022/04/05 09:27:00;;;;;;;22.10;18.50;;;;;;;;;;4941008;28;20302;-75
2022/04/05 09:29:39;;;;;;;20.60;17.48;;;;;;;;;;4936068;29;20418;-75
2022/04/05 09:32:05;;;;;;;22.98;18.65;;;;;;;;;;4937674;29;20295;-75
2022/04/05 09:34:31;;;;;;;18.42;14.30;;;;;;;;;;4942135;29;20184;-75
2022/04/05 09:36:57;;;;;;;22.50;17.83;;;;;;;;;;4957111;28;20202;-74
2022/04/05 09:39:25;;;;;;;18.47;16.50;;;;;;;;;;4942335;29;20438;-75
2022/04/05 09:41:57;;;;;;;19.20;15.65;;;;;;;;;;4941857;29;20430;-76
2022/04/05 09:44:27;;;;;;;17.70;15.90;;;;;;;;;;4942175;29;20193;-75
2022/04/05 09:47:04;;;;;;;15.95;14.25;;;;;;;;;;4942001;29;20201;-75
2022/04/05 09:49:31;;;;;;;19.80;14.88;;;;;;;;;;4942097;29;20205;-74
2022/04/05 09:51:57;;;;;;;17.27;13.52;;;;;;;;;;4941622;29;20248;-75
2022/04/05 09:54:27;;;;;;;15.07;11.63;;;;;;;;;;4951068;28;20321;-74
2022/04/05 09:56:59;;;;;;;15.15;13.13;;;;;;;;;;4961063;28;20956;-75
2022/04/05 09:59:25;;;;;;;15.27;13.70;;;;;;;;;;4976131;28;20201;-74
2022/04/05 10:01:56;;;;;;;14.97;13.40;;;;;;;;;;4960795;28;20214;-76
2022/04/05 10:04:22;;;;;;;15.95;14.25;;;;;;;;;;4961207;28;20432;-76
2022/04/05 10:06:48;;;;;;;15.55;12.32;;;;;;;;;;4961015;28;20212;-75
2022/04/05 10:09:16;;;;;;;15.23;13.60;;;;;;;;;;4960790;28;20184;-75
2022/04/05 10:11:42;;;;;;;17.52;14.57;;;;;;;;;;4960860;28;20196;-75
2022/04/05 10:14:10;;;;;;;16.55;13.50;;;;;;;;;;4961142;28;20639;-75
2022/04/05 10:16:37;;;;;;;15.30;13.65;;;;;;;;;;4975971;28;20196;-76
2022/04/05 10:19:04;;;;;;;17.08;15.32;;;;;;;;;;4961191;28;20248;-76
2022/04/05 10:21:31;;;;;;;17.13;15.38;;;;;;;;;;4960836;28;20203;-75
2022/04/05 10:23:57;;;;;;;15.90;14.25;;;;;;;;;;4960975;28;20185;-75
2022/04/05 10:26:27;;;;;;;16.55;14.88;;;;;;;;;;4960986;28;20220;-76
2022/04/05 10:28:54;;;;;;;17.95;15.00;;;;;;;;;;4961037;28;20216;-75
2022/04/05 10:31:39;;;;;;;14.55;13.02;;;;;;;;;;4959341;29;20268;-75
2022/04/05 10:34:17;;;;;;;16.42;14.82;;;;;;;;;;4960917;28;20175;-74
2022/04/05 10:37:02;;;;;;;17.23;14.65;;;;;;;;;;4960923;28;20173;-75
2022/04/05 10:39:28;;;;;;;16.77;14.88;;;;;;;;;;4960889;28;20542;-75
2022/04/05 10:42:09;;;;;;;14.00;12.50;;;;;;;;;;4960586;28;20204;-76
2022/04/05 10:44:36;;;;;;;16.15;14.63;;;;;;;;;;4972224;28;20508;-75
2022/04/05 10:47:04;;;;;;;17.27;14.38;;;;;;;;;;4957756;28;20202;-75
2022/04/05 10:49:33;;;;;;;15.38;13.82;;;;;;;;;;4957722;28;20265;-75
2022/04/05 10:52:16;;;;;;;15.18;13.20;;;;;;;;;;4957171;28;20295;-76
2022/04/05 10:54:43;;;;;;;14.30;12.23;;;;;;;;;;4957684;28;20193;-75
2022/04/05 10:57:18;;;;;;;22.48;13.27;;;;;;;;;;4957540;28;20182;-75
2022/04/05 10:59:54;;;;;;;14.90;13.50;;;;;;;;;;4957578;28;20297;-75
2022/04/05 11:02:29;;;;;;;13.13;11.82;;;;;;;;;;4957176;28;20206;-75
2022/04/05 11:05:00;;;;;;;13.32;11.75;;;;;;;;;;4957366;28;20195;-74
2022/04/05 11:07:26;;;;;;;11.77;10.63;;;;;;;;;;4956998;28;20208;-74
2022/04/05 11:09:59;;;;;;;12.73;11.50;;;;;;;;;;4957273;28;20192;-76
2022/04/05 11:12:26;;;;;;;11.15;9.77;;;;;;;;;;4957078;28;20434;-75
2022/04/05 11:15:04;;;;;;;11.25;10.15;;;;;;;;;;4957178;28;20496;-75
2022/04/05 11:17:32;;;;;;;10.27;9.18;;;;;;;;;;4957013;28;20177;-75
2022/04/05 11:19:59;;;;;;;11.85;9.10;;;;;;;;;;4957049;28;20218;-74
2022/04/05 11:22:24;;;;;;;11.60;10.60;;;;;;;;;;4956562;28;20202;-75
2022/04/05 11:25:00;;;;;;;12.90;8.70;;;;;;;;;;4971787;28;20190;-76
2022/04/05 11:27:30;;;;;;;9.90;8.90;;;;;;;;;;4956726;28;20525;-75
2022/04/05 11:30:15;;;;;;;10.50;9.38;;;;;;;;;;4957093;28;20253;-75
2022/04/05 11:33:01;;;;;;;11.82;10.52;;;;;;;;;;4956791;28;20194;-76
2022/04/05 11:35:27;;;;;;;9.40;8.60;;;;;;;;;;4956786;28;20177;-74
2022/04/05 11:37:53;;;;;;;10.27;9.38;;;;;;;;;;4956797;28;20171;-74
2022/04/05 11:40:19;;;;;;;11.37;10.27;;;;;;;;;;4956316;28;20229;-75
2022/04/05 11:42:45;;;;;;;10.30;8.83;;;;;;;;;;4956583;28;20889;-74
2022/04/05 11:45:11;;;;;;;8.98;8.07;;;;;;;;;;4956727;28;20502;-74
2022/04/05 11:47:38;;;;;;;8.52;7.72;;;;;;;;;;4956337;28;20221;-75
2022/04/05 11:50:08;;;;;;;10.02;9.02;;;;;;;;;;4956705;28;20553;-74
2022/04/05 11:52:34;;;;;;;9.20;8.20;;;;;;;;;;4956472;28;20221;-74
2022/04/05 11:58:01;;;;;;;7.18;6.47;;;;;;;;;;4956534;28;20416;-75
2022/04/05 12:00:27;;;;;;;8.90;8.10;;;;;;;;;;4956216;28;20260;-74
2022/04/05 12:03:06;;;;;;;9.02;8.23;;;;;;;;;;4956395;28;20896;-74
2022/04/05 12:05:42;;;;;;;10.63;9.52;;;;;;;;;;4956338;28;20228;-74
2022/04/05 12:08:10;;;;;;;10.10;8.95;;;;;;;;;;4956357;28;20197;-75
2022/04/05 12:10:36;;;;;;;9.60;8.70;;;;;;;;;;4955880;28;20181;-74
2022/04/05 12:13:02;;;;;;;10.37;9.30;;;;;;;;;;4956308;28;20547;-75
2022/04/05 12:15:28;;;;;;;9.43;8.48;;;;;;;;;;4956172;28;20413;-74
2022/04/05 12:18:17;;;;;;;10.70;9.70;;;;;;;;;;4956030;28;20662;-75
2022/04/05 12:21:00;;;;;;;10.02;8.32;;;;;;;;;;4955271;29;20452;-75
2022/04/05 12:23:36;;;;;;;9.25;8.35;;;;;;;;;;4956142;28;20179;-75
2022/04/05 12:26:11;;;;;;;9.40;8.50;;;;;;;;;;4956031;28;20676;-75
2022/04/05 12:28:39;;;;;;;9.85;6.78;;;;;;;;;;4956173;28;20271;-75
2022/04/05 12:31:09;;;;;;;8.65;7.60;;;;;;;;;;4955530;28;20292;-75
2022/04/05 12:33:35;;;;;;;7.93;7.22;;;;;;;;;;4955788;28;20634;-75
2022/04/05 12:36:03;;;;;;;7.07;6.20;;;;;;;;;;4955533;28;20269;-74
2022/04/05 12:38:29;;;;;;;9.55;7.70;;;;;;;;;;4954779;28;20179;-75
2022/04/05 12:40:56;;;;;;;7.65;6.63;;;;;;;;;;4955429;28;20209;-75
2022/04/05 12:43:22;;;;;;;7.95;7.15;;;;;;;;;;4955713;28;20639;-75
2022/04/05 12:45:49;;;;;;;7.80;7.13;;;;;;;;;;4955648;28;20217;-74
2022/04/05 12:48:19;;;;;;;7.43;6.68;;;;;;;;;;4955461;28;20493;-75
2022/04/05 12:50:46;;;;;;;7.65;6.80;;;;;;;;;;4955420;28;20594;-75
2022/04/05 12:53:13;;;;;;;8.73;6.10;;;;;;;;;;4955500;28;20182;-75
2022/04/05 12:55:40;;;;;;;9.00;6.93;;;;;;;;;;4955587;28;20275;-76
2022/04/05 12:58:07;;;;;;;9.48;7.63;;;;;;;;;;4955412;28;20182;-76
2022/04/05 13:00:42;;;;;;;8.25;7.50;;;;;;;;;;4955040;28;20179;-74
2022/04/05 13:03:09;;;;;;;7.90;7.18;;;;;;;;;;4955587;28;20177;-74
2022/04/05 13:08:31;;;;;;;9.15;7.85;;;;;;;;;;4954550;29;20325;-76
2022/04/05 13:10:57;;;;;;;8.02;7.10;;;;;;;;;;4955140;28;20216;-74
2022/04/05 13:13:27;;;;;;;8.57;7.65;;;;;;;;;;4955531;28;20234;-76
2022/04/05 13:16:02;;;;;;;8.35;6.25;;;;;;;;;;4955506;28;20182;-76
2022/04/05 13:18:35;;;;;;;7.63;6.80;;;;;;;;;;4955374;28;20174;-75
2022/04/05 13:21:03;;;;;;;8.05;6.80;;;;;;;;;;4954986;28;20279;-74
2022/04/05 13:23:31;;;;;;;7.90;6.95;;;;;;;;;;4955126;28;20264;-75
2022/04/05 13:25:57;;;;;;;6.72;5.35;;;;;;;;;;4955159;28;20680;-75
2022/04/05 13:28:31;;;;;;;6.97;6.30;;;;;;;;;;4955031;28;20178;-75
2022/04/05 13:31:05;;;;;;;8.98;7.95;;;;;;;;;;4954783;28;20190;-75
2022/04/05 13:33:31;;;;;;;7.40;6.72;;;;;;;;;;4969946;28;20181;-75
2022/04/05 13:35:57;;;;;;;9.00;8.20;;;;;;;;;;4955144;28;20504;-75
2022/04/05 13:38:23;;;;;;;7.90;7.20;;;;;;;;;;4955161;28;20432;-77
2022/04/05 13:40:49;;;;;;;8.50;7.60;;;;;;;;;;4954732;28;20511;-75
2022/04/05 13:43:15;;;;;;;8.85;7.90;;;;;;;;;;4955070;28;20436;-75
2022/04/05 13:45:41;;;;;;;8.30;7.43;;;;;;;;;;4954966;28;20208;-74
2022/04/05 13:48:08;;;;;;;10.50;7.88;;;;;;;;;;4954808;28;20409;-75
2022/04/05 13:50:33;;;;;;;9.68;8.73;;;;;;;;;;4954677;28;20273;-74
2022/04/05 13:52:59;;;;;;;9.73;8.83;;;;;;;;;;4954837;28;20258;-74
2022/04/05 13:55:25;;;;;;;9.17;8.27;;;;;;;;;;4954928;28;20499;-74
2022/04/05 13:57:51;;;;;;;10.80;8.33;;;;;;;;;;4954852;28;20914;-74
2022/04/05 14:00:17;;;;;;;9.13;8.23;;;;;;;;;;4954493;28;20424;-74
2022/04/05 14:02:43;;;;;;;9.38;8.48;;;;;;;;;;4954588;28;20438;-76
2022/04/05 14:05:09;;;;;;;11.17;9.20;;;;;;;;;;4954743;28;20187;-75
2022/04/05 14:07:38;;;;;;;11.55;8.32;;;;;;;;;;4954766;28;20463;-75
2022/04/05 14:10:06;;;;;;;10.27;8.88;;;;;;;;;;4954836;28;20175;-74
2022/04/05 14:12:32;;;;;;;10.27;9.15;;;;;;;;;;4954344;28;20198;-76
2022/04/05 14:14:58;;;;;;;9.23;8.40;;;;;;;;;;4954616;28;20265;-75
2022/04/05 14:17:24;;;;;;;8.20;6.97;;;;;;;;;;4954729;28;20214;-75
2022/04/05 14:19:50;;;;;;;8.35;7.45;;;;;;;;;;4958117;28;20424;-75
2022/04/05 14:22:17;;;;;;;10.97;8.00;;;;;;;;;;4956728;28;20294;-75
2022/04/05 14:24:43;;;;;;;7.53;6.30;;;;;;;;;;4958281;28;20413;-75
2022/04/05 14:27:09;;;;;;;6.73;6.03;;;;;;;;;;4958378;28;20259;-74
2022/04/05 14:29:35;;;;;;;7.85;6.72;;;;;;;;;;4958391;28;20408;-75